Time;durP1;ratioP1;P1;durP2;ratioP2;P2;SDS_P1;SDS_P2;PMS_P1;PMS_P2;Temp;Humidity;BMP_temperature;BMP_pressure;BME280_temperature;BME280_humidity;BME280_pressure;Samples;Min_cycle;Max_cycle;Signal;HPM_P1;HPM_P2
2022/08/06 00:00:11;;;;;;;12.13;10.13;;;;;;;17.26;100.00;96308.56;1030454;28;20125;-70
2022/08/06 00:00:41;;;;;;;9.80;8.25;;;;;;;17.20;100.00;96318.50;1030395;28;20034;-70
2022/08/06 00:01:12;;;;;;;12.27;10.07;;;;;;;17.20;100.00;96318.50;1029418;28;20532;-69
2022/08/06 00:01:42;;;;;;;13.73;10.80;;;;;;;17.25;100.00;96320.28;1030318;28;20034;-69
2022/08/06 00:02:13;;;;;;;15.25;11.57;;;;;;;17.25;100.00;96314.19;1030394;28;20030;-70
2022/08/06 00:02:43;;;;;;;18.65;12.63;;;;;;;17.26;100.00;96313.88;1026604;28;20026;-70
2022/08/06 00:03:14;;;;;;;11.57;8.70;;;;;;;17.21;100.00;96313.97;1025998;28;20035;-69
2022/08/06 00:03:44;;;;;;;11.02;8.95;;;;;;;17.17;100.00;96308.47;1026475;28;20027;-70
2022/08/06 00:04:15;;;;;;;10.13;8.70;;;;;;;17.17;100.00;96307.69;1030390;28;20041;-70
2022/08/06 00:04:46;;;;;;;12.20;9.73;;;;;;;17.18;100.00;96312.69;1030312;28;20026;-70
2022/08/06 00:05:17;;;;;;;11.98;8.85;;;;;;;17.16;100.00;96317.47;1026099;28;20611;-69
2022/08/06 00:05:47;;;;;;;11.98;8.65;;;;;;;17.12;100.00;96316.50;1022439;29;20122;-71
2022/08/06 00:06:18;;;;;;;14.57;10.15;;;;;;;17.14;100.00;96318.88;1022239;28;20078;-70
2022/08/06 00:06:48;;;;;;;18.15;11.93;;;;;;;17.15;100.00;96325.75;1030446;28;20500;-70
2022/08/06 00:07:19;;;;;;;11.40;9.88;;;;;;;17.15;100.00;96326.53;1026191;28;20042;-70
2022/08/06 00:07:49;;;;;;;11.13;9.63;;;;;;;17.12;100.00;96331.63;1018449;29;20028;-69
2022/08/06 00:08:20;;;;;;;14.52;10.30;;;;;;;17.14;100.00;96330.25;1022206;28;20647;-69
2022/08/06 00:08:50;;;;;;;14.93;12.15;;;;;;;17.14;100.00;96335.56;1022536;28;20027;-72
2022/08/06 00:09:21;;;;;;;18.95;13.05;;;;;;;17.18;100.00;96335.78;1026427;28;20038;-70
2022/08/06 00:09:52;;;;;;;14.07;11.65;;;;;;;17.19;100.00;96340.00;1026181;28;20129;-70
2022/08/06 00:10:22;;;;;;;15.90;12.43;;;;;;;17.23;100.00;96345.50;1026362;28;20707;-69
2022/08/06 00:10:53;;;;;;;14.73;12.07;;;;;;;17.23;100.00;96348.16;1026421;28;20027;-70
2022/08/06 00:11:23;;;;;;;14.95;10.05;;;;;;;17.17;100.00;96350.91;1026542;28;20027;-69
2022/08/06 00:11:53;;;;;;;16.25;11.95;;;;;;;17.19;100.00;96343.44;1034546;28;20104;-70
2022/08/06 00:12:24;;;;;;;16.63;12.25;;;;;;;17.20;100.00;96347.69;1030339;28;20041;-70
2022/08/06 00:12:54;;;;;;;15.90;11.05;;;;;;;17.20;100.00;96352.16;1030389;28;20026;-69
2022/08/06 00:13:25;;;;;;;23.13;14.95;;;;;;;17.22;100.00;96357.19;1022195;28;20062;-69
2022/08/06 00:13:55;;;;;;;14.98;11.95;;;;;;;17.22;100.00;96357.19;1022447;28;20031;-70
2022/08/06 00:14:27;;;;;;;15.57;12.02;;;;;;;17.23;100.00;96358.75;1026342;28;20054;-69
2022/08/06 00:14:58;;;;;;;18.73;13.88;;;;;;;17.18;100.00;96351.69;1026753;28;20011;-70
2022/08/06 00:15:28;;;;;;;18.50;14.07;;;;;;;17.27;100.00;96360.56;1030304;28;20036;-70
2022/08/06 00:15:59;;;;;;;18.15;13.77;;;;;;;17.29;100.00;96358.41;1030402;28;20504;-70
2022/08/06 00:16:29;;;;;;;17.75;11.95;;;;;;;17.30;100.00;96353.88;1030283;28;20054;-70
2022/08/06 00:17:00;;;;;;;18.80;12.30;;;;;;;17.31;100.00;96353.59;1026177;28;20530;-70
2022/08/06 00:17:30;;;;;;;12.38;9.95;;;;;;;17.27;100.00;96357.09;1030275;28;20031;-70
2022/08/06 00:18:01;;;;;;;13.73;10.98;;;;;;;17.26;100.00;96358.19;1030270;28;20034;-69
2022/08/06 00:18:31;;;;;;;13.93;10.80;;;;;;;17.30;100.00;96353.88;1030326;28;20026;-70
2022/08/06 00:19:02;;;;;;;13.18;10.15;;;;;;;17.25;100.00;96346.78;1034302;28;20518;-70
2022/08/06 00:19:32;;;;;;;12.68;10.32;;;;;;;17.24;100.00;96344.44;1026336;28;20023;-70
2022/08/06 00:20:04;;;;;;;18.80;14.63;;;;;;;17.32;100.00;96351.72;1026204;28;20567;-71
2022/08/06 00:20:34;;;;;;;17.25;10.25;;;;;;;17.28;100.00;96345.44;1026192;28;20023;-70
2022/08/06 00:21:05;;;;;;;18.45;12.20;;;;;;;17.32;100.00;96347.22;1022034;28;20098;-68
2022/08/06 00:21:35;;;;;;;17.27;11.88;;;;;;;17.33;100.00;96346.13;1022313;28;20035;-70
2022/08/06 00:22:06;;;;;;;13.95;11.30;;;;;;;17.34;100.00;96346.94;1027287;28;20732;-70
2022/08/06 00:22:37;;;;;;;22.80;12.93;;;;;;;17.37;100.00;96351.63;1026445;28;20057;-70
2022/08/06 00:23:07;;;;;;;16.98;12.77;;;;;;;17.40;100.00;96348.41;1026394;28;20477;-71
2022/08/06 00:23:37;;;;;;;15.05;11.45;;;;;;;17.38;100.00;96350.56;1030474;28;20408;-70
2022/08/06 00:24:08;;;;;;;19.70;13.65;;;;;;;17.22;100.00;96330.69;1026025;28;20023;-69
2022/08/06 00:24:38;;;;;;;19.88;13.38;;;;;;;17.42;100.00;96354.22;1022476;28;20031;-70
2022/08/06 00:25:12;;;;;;;17.77;14.00;;;;;;;17.42;100.00;96352.34;1026322;28;20030;-70
2022/08/06 00:25:46;;;;;;;18.02;13.15;;;;;;;17.46;100.00;96357.84;1029239;28;20539;-70
2022/08/06 00:26:16;;;;;;;19.63;14.93;;;;;;;17.49;100.00;96348.53;1030112;28;20033;-70
2022/08/06 00:26:47;;;;;;;20.35;14.85;;;;;;;17.48;100.00;96350.41;1030395;28;20376;-70
2022/08/06 00:27:17;;;;;;;21.58;14.43;;;;;;;17.50;100.00;96342.13;1023970;28;20066;-70
2022/08/06 00:27:48;;;;;;;18.30;13.63;;;;;;;17.48;100.00;96355.72;1026277;28;20022;-70
2022/08/06 00:28:23;;;;;;;19.40;12.05;;;;;;;17.40;100.00;96333.28;1026084;28;20034;-71
2022/08/06 00:28:54;;;;;;;21.92;14.70;;;;;;;17.50;100.00;96356.19;1024058;28;20110;-70
2022/08/06 00:29:24;;;;;;;20.73;15.07;;;;;;;17.52;100.00;96348.72;1025631;28;20034;-70
2022/08/06 00:29:55;;;;;;;26.80;16.90;;;;;;;17.50;100.00;96345.56;1022301;29;20061;-70
2022/08/06 00:30:25;;;;;;;22.30;15.13;;;;;;;17.49;100.00;96349.31;1022338;28;20385;-69
2022/08/06 00:30:56;;;;;;;28.90;17.55;;;;;;;17.49;100.00;96349.31;1030225;28;20025;-70
2022/08/06 00:31:26;;;;;;;21.55;15.05;;;;;;;17.46;100.00;96349.91;1029569;28;20427;-69
2022/08/06 00:31:57;;;;;;;20.52;14.80;;;;;;;17.51;100.00;96349.81;1030223;28;20030;-70
2022/08/06 00:32:27;;;;;;;24.77;16.45;;;;;;;17.54;100.00;96349.25;1031497;28;20455;-70
2022/08/06 00:32:58;;;;;;;26.42;17.15;;;;;;;17.58;100.00;96354.75;1030268;28;20112;-69
2022/08/06 00:33:28;;;;;;;26.85;17.35;;;;;;;17.56;100.00;96352.38;1034255;28;20030;-70
2022/08/06 00:34:03;;;;;;;27.15;17.15;;;;;;;17.58;100.00;96355.53;1034081;28;20121;-71
2022/08/06 00:34:34;;;;;;;29.02;17.33;;;;;;;17.58;100.00;96355.53;1025445;28;20039;-69
2022/08/06 00:35:05;;;;;;;24.83;15.70;;;;;;;17.56;100.00;96360.34;1021461;29;20023;-69
2022/08/06 00:35:36;;;;;;;20.98;14.75;;;;;;;17.53;100.00;96352.94;1019598;28;20091;-71
2022/08/06 00:36:07;;;;;;;25.98;16.98;;;;;;;17.53;100.00;96358.25;1027033;28;20500;-69
2022/08/06 00:36:37;;;;;;;22.52;15.77;;;;;;;17.55;100.00;96350.81;1030587;28;20050;-71
2022/08/06 00:37:07;;;;;;;26.63;16.85;;;;;;;17.58;100.00;96355.53;1034327;28;20030;-70
2022/08/06 00:37:38;;;;;;;27.52;18.10;;;;;;;17.56;100.00;96356.91;1034249;28;20022;-70
2022/08/06 00:38:09;;;;;;;37.30;20.05;;;;;;;17.59;100.00;96349.13;1034314;28;20072;-71
2022/08/06 00:38:39;;;;;;;28.98;17.73;;;;;;;17.60;100.00;96353.34;1034117;28;20025;-71
2022/08/06 00:39:10;;;;;;;33.95;18.73;;;;;;;17.60;100.00;96348.06;1033942;28;20033;-71
2022/08/06 00:39:40;;;;;;;35.15;20.13;;;;;;;17.63;100.00;96350.13;1024682;28;20547;-70
2022/08/06 00:40:11;;;;;;;34.72;20.33;;;;;;;17.62;100.00;96345.91;1026258;28;20030;-69
2022/08/06 00:40:41;;;;;;;32.47;19.63;;;;;;;17.63;100.00;96342.16;1025929;28;20042;-71
2022/08/06 00:41:14;;;;;;;37.20;22.00;;;;;;;17.66;100.00;96344.22;1021678;28;20016;-71
2022/08/06 00:41:44;;;;;;;40.15;22.83;;;;;;;17.69;100.00;96340.22;1025974;28;20031;-70
2022/08/06 00:42:15;;;;;;;38.95;23.30;;;;;;;17.71;100.00;96343.38;1018177;29;20015;-69
2022/08/06 00:42:45;;;;;;;60.28;23.70;;;;;;;17.69;100.00;96332.25;1017899;29;20115;-70
2022/08/06 00:43:16;;;;;;;60.92;23.58;;;;;;;17.73;100.00;96340.41;1026303;28;20022;-70
2022/08/06 00:43:46;;;;;;;38.80;22.40;;;;;;;17.74;100.00;96339.31;1026230;28;20027;-70
2022/08/06 00:44:17;;;;;;;43.63;23.80;;;;;;;17.72;100.00;96344.16;1026152;28;20117;-70
2022/08/06 00:44:47;;;;;;;49.80;24.38;;;;;;;17.63;100.00;96328.88;1026010;28;20026;-71
2022/08/06 00:45:18;;;;;;;48.17;25.05;;;;;;;17.74;100.00;96339.31;1022301;29;20560;-70
2022/08/06 00:45:48;;;;;;;49.35;22.63;;;;;;;17.73;100.00;96335.09;1022165;28;20163;-69
2022/08/06 00:46:19;;;;;;;51.25;26.73;;;;;;;17.79;100.00;96340.06;1022406;28;20035;-69
2022/08/06 00:46:49;;;;;;;119.80;39.10;;;;;;;17.82;100.00;96341.34;1026095;28;20051;-71
2022/08/06 00:47:20;;;;;;;88.88;35.80;;;;;;;17.84;100.00;96341.81;1026214;28;20089;-70
2022/08/06 00:47:51;;;;;;;64.20;30.67;;;;;;;17.83;100.00;96334.94;1026130;28;20022;-69
2022/08/06 00:48:21;;;;;;;60.90;29.45;;;;;;;17.83;100.00;96338.38;1026389;28;20532;-70
2022/08/06 00:48:52;;;;;;;63.83;30.60;;;;;;;17.76;100.00;96327.38;1030165;28;20061;-69
2022/08/06 00:49:22;;;;;;;46.67;26.40;;;;;;;17.79;100.00;96340.06;1026328;28;20688;-70
2022/08/06 00:49:53;;;;;;;45.15;27.17;;;;;;;17.71;100.00;96329.31;1030306;28;20099;-70
2022/08/06 00:50:23;;;;;;;49.10;26.35;;;;;;;17.73;100.00;96341.19;1026229;28;20034;-71
2022/08/06 00:50:54;;;;;;;60.13;30.15;;;;;;;17.76;100.00;96342.47;1022005;28;20042;-70
2022/08/06 00:51:24;;;;;;;46.90;28.58;;;;;;;17.75;100.00;96339.03;1021518;29;20042;-70
2022/08/06 00:51:55;;;;;;;54.28;29.25;;;;;;;17.79;100.00;96341.94;1026281;28;20042;-69
2022/08/06 00:52:25;;;;;;;58.70;29.17;;;;;;;17.77;100.00;96341.44;1026297;28;20027;-70
2022/08/06 00:52:56;;;;;;;51.25;29.58;;;;;;;17.76;100.00;96348.59;1025983;28;20038;-70
2022/08/06 00:53:26;;;;;;;47.33;26.63;;;;;;;17.74;100.00;96349.94;1025930;28;20695;-70
2022/08/06 00:53:56;;;;;;;71.22;32.30;;;;;;;17.75;100.00;96354.97;1022315;29;20078;-71
2022/08/06 00:54:27;;;;;;;62.17;31.08;;;;;;;17.72;100.00;96358.22;1023760;28;20031;-70
2022/08/06 00:54:57;;;;;;;48.58;27.25;;;;;;;17.62;100.00;96343.25;1028855;28;20472;-70
2022/08/06 00:55:28;;;;;;;58.65;31.85;;;;;;;17.73;100.00;96356.34;1034061;28;20073;-70
2022/08/06 00:56:00;;;;;;;47.72;28.05;;;;;;;17.50;100.00;96337.63;1034113;28;20029;-70
2022/08/06 00:56:31;;;;;;;51.47;29.52;;;;;;;17.67;100.00;96363.59;1034191;28;20022;-69
2022/08/06 00:57:05;;;;;;;71.28;33.72;;;;;;;17.70;100.00;96354.25;1030129;28;20498;-70
2022/08/06 00:57:36;;;;;;;71.10;35.42;;;;;;;17.71;100.00;96364.59;1030111;28;20629;-70
2022/08/06 00:58:06;;;;;;;63.85;32.95;;;;;;;17.72;100.00;96360.09;1026101;28;20023;-69
2022/08/06 00:58:37;;;;;;;62.03;32.60;;;;;;;17.71;100.00;96355.88;1026781;28;20561;-70
2022/08/06 00:59:07;;;;;;;63.92;34.47;;;;;;;17.68;100.00;96360.66;1030241;28;20460;-70
2022/08/06 00:59:38;;;;;;;57.65;29.50;;;;;;;17.61;100.00;96348.88;1025984;28;20019;-69
2022/08/06 01:00:08;;;;;;;56.25;31.58;;;;;;;17.64;100.00;96358.91;1026159;28;20010;-70
2022/08/06 01:00:39;;;;;;;70.25;34.78;;;;;;;17.64;100.00;96359.69;1018412;29;20043;-69
2022/08/06 01:01:10;;;;;;;58.22;31.73;;;;;;;17.67;100.00;96351.13;1017785;28;20020;-70
2022/08/06 01:01:41;;;;;;;66.30;34.67;;;;;;;17.70;100.00;96348.97;1014244;29;20083;-70
2022/08/06 01:02:12;;;;;;;88.38;39.08;;;;;;;17.66;100.00;96344.22;1018454;29;20147;-71
2022/08/06 01:02:42;;;;;;;65.43;32.53;;;;;;;17.54;100.00;96338.63;1022435;28;20023;-70
2022/08/06 01:03:16;;;;;;;56.42;28.52;;;;;;;17.56;100.00;96351.59;1022463;28;20042;-70
2022/08/06 01:03:47;;;;;;;44.33;26.63;;;;;;;17.49;100.00;96351.97;1030188;28;20018;-69
2022/08/06 01:04:18;;;;;;;47.05;27.65;;;;;;;17.36;100.00;96337.59;1026241;28;20015;-69
2022/08/06 01:04:48;;;;;;;52.45;28.88;;;;;;;17.42;100.00;96346.25;1026821;28;20487;-69
2022/08/06 01:05:19;;;;;;;55.42;28.63;;;;;;;17.35;100.00;96345.84;1030233;28;20018;-69
2022/08/06 01:05:49;;;;;;;47.40;27.95;;;;;;;17.33;100.00;96350.63;1026293;28;20853;-70
2022/08/06 01:06:20;;;;;;;67.97;32.03;;;;;;;17.26;100.00;96336.97;1030006;28;20026;-70
2022/08/06 01:06:50;;;;;;;59.17;30.00;;;;;;;17.23;100.00;96340.19;1026328;28;20007;-70
2022/08/06 01:07:21;;;;;;;87.72;36.65;;;;;;;17.23;100.00;96342.84;1026340;28;20350;-70
2022/08/06 01:07:51;;;;;;;74.10;33.25;;;;;;;17.22;100.00;96335.97;1025974;28;20330;-69
2022/08/06 01:08:22;;;;;;;55.75;29.05;;;;;;;17.11;100.00;96327.41;1026288;28;20030;-70
2022/08/06 01:08:52;;;;;;;69.53;32.03;;;;;;;17.16;100.00;96322.00;1030326;28;20022;-69
2022/08/06 01:09:23;;;;;;;51.63;29.63;;;;;;;17.15;100.00;96321.22;1030267;28;20456;-69
2022/08/06 01:09:53;;;;;;;53.17;29.02;;;;;;;17.06;100.00;96315.00;1025921;28;20570;-69
2022/08/06 01:10:24;;;;;;;56.53;30.20;;;;;;;17.10;100.00;96317.84;1026150;28;20030;-69
2022/08/06 01:10:54;;;;;;;73.22;33.67;;;;;;;17.07;100.00;96313.13;1022285;29;20020;-70
2022/08/06 01:11:25;;;;;;;67.25;32.75;;;;;;;17.09;100.00;96311.75;1020075;28;20027;-70
2022/08/06 01:11:55;;;;;;;71.05;33.22;;;;;;;16.99;100.00;96290.72;1026096;28;20029;-69
2022/08/06 01:12:26;;;;;;;79.03;35.97;;;;;;;17.12;100.00;96308.53;1026182;28;20031;-70
2022/08/06 01:12:56;;;;;;;81.30;37.15;;;;;;;17.13;100.00;96307.44;1030157;28;20515;-70
2022/08/06 01:13:27;;;;;;;76.30;36.45;;;;;;;17.13;100.00;96318.06;1030053;28;20031;-70
2022/08/06 01:13:57;;;;;;;72.35;34.58;;;;;;;17.13;100.00;96320.72;1030029;28;20543;-69
2022/08/06 01:14:28;;;;;;;89.03;39.38;;;;;;;17.14;100.00;96314.34;1030003;28;20018;-69
2022/08/06 01:14:58;;;;;;;72.95;33.80;;;;;;;17.15;100.00;96321.22;1032610;28;20956;-69
2022/08/06 01:15:29;;;;;;;62.53;31.60;;;;;;;17.09;100.00;96317.06;1034170;28;20060;-70
2022/08/06 01:16:08;;;;;;;70.65;34.40;;;;;;;17.18;100.00;96330.47;1025867;28;20035;-71
2022/08/06 01:16:54;;;;;;;67.95;33.25;;;;;;;17.19;100.00;96332.03;1024159;28;20015;-72
2022/08/06 01:17:38;;;;;;;97.28;38.45;;;;;;;17.19;100.00;96350.59;1018106;29;20417;-70
2022/08/06 01:18:10;;;;;;;81.72;37.22;;;;;;;17.18;100.00;96339.22;1026547;28;20353;-69
2022/08/06 01:18:55;;;;;;;58.75;30.35;;;;;;;17.11;100.00;96338.78;1025959;28;20011;-69
2022/08/06 01:19:25;;;;;;;65.55;31.83;;;;;;;17.13;100.00;96352.53;1028178;28;20533;-69
2022/08/06 01:19:58;;;;;;;73.82;33.53;;;;;;;17.08;100.00;96346.53;1030118;28;20019;-69
2022/08/06 01:20:46;;;;;;;68.20;31.63;;;;;;;17.14;100.00;96367.38;1025830;28;20694;-70
2022/08/06 01:21:55;;;;;;;82.80;35.95;;;;;;;17.09;100.00;96362.16;1027877;28;20045;-69
2022/08/06 01:22:51;;;;;;;59.28;28.15;;;;;;;17.09;100.00;96359.50;1029165;28;20467;-68
2022/08/06 01:23:33;;;;;;;85.05;33.75;;;;;;;17.07;100.00;96358.19;1030057;28;20129;-70
2022/08/06 01:24:34;;;;;;;67.38;32.63;;;;;;;17.04;100.00;96367.53;1033536;28;20510;-73
2022/08/06 01:25:35;;;;;;;68.25;31.65;;;;;;;17.07;100.00;96366.16;1028752;28;20022;-69
2022/08/06 01:26:24;;;;;;;67.07;31.00;;;;;;;17.06;100.00;96375.19;1030002;28;20022;-69
2022/08/06 01:27:28;;;;;;;67.00;30.27;;;;;;;17.06;100.00;96375.97;1030953;28;20026;-70
2022/08/06 01:28:38;;;;;;;75.00;33.47;;;;;;;17.05;100.00;96379.72;1028264;28;20027;-71
2022/08/06 01:29:21;;;;;;;58.47;29.17;;;;;;;17.01;100.00;96376.06;1036020;28;20483;-69
2022/08/06 01:29:53;;;;;;;64.13;31.15;;;;;;;17.01;100.00;96376.06;1034032;28;20559;-69
2022/08/06 01:30:28;;;;;;;69.90;33.38;;;;;;;16.99;100.00;96380.88;1022473;28;20663;-69
2022/08/06 01:31:07;;;;;;;74.47;34.15;;;;;;;16.93;100.00;96371.41;1010375;29;20850;-69
2022/08/06 01:31:58;;;;;;;69.28;32.38;;;;;;;16.93;100.00;96372.22;1010150;29;20028;-69
2022/08/06 01:32:32;;;;;;;87.20;34.65;;;;;;;16.73;100.00;96346.75;1020496;28;20030;-69
2022/08/06 01:33:14;;;;;;;69.05;32.25;;;;;;;16.95;100.00;96380.66;1018136;29;20031;-70
2022/08/06 01:33:48;;;;;;;63.90;31.77;;;;;;;16.93;100.00;96382.00;1022145;29;20027;-70
2022/08/06 01:34:32;;;;;;;75.50;33.45;;;;;;;16.92;100.00;96381.22;1014123;29;20032;-69
2022/08/06 01:35:10;;;;;;;76.53;35.22;;;;;;;16.89;100.00;96384.44;1025477;28;20065;-69
2022/08/06 01:35:42;;;;;;;63.38;30.30;;;;;;;16.83;100.00;96380.28;1015922;29;20707;-69
2022/08/06 01:36:20;;;;;;;93.93;36.42;;;;;;;16.79;100.00;96383.81;1025101;28;20031;-70
2022/08/06 01:36:55;;;;;;;63.92;30.80;;;;;;;16.82;100.00;96386.66;1017892;29;20606;-70
2022/08/06 01:37:37;;;;;;;67.65;32.50;;;;;;;16.85;100.00;96391.41;1021856;29;20097;-69
2022/08/06 01:38:10;;;;;;;73.53;34.20;;;;;;;16.84;100.00;96392.47;1014363;29;20039;-69
2022/08/06 01:38:51;;;;;;;89.93;38.67;;;;;;;16.83;100.00;96400.69;1022164;29;20026;-69
2022/08/06 01:39:21;;;;;;;74.13;35.60;;;;;;;16.87;100.00;96391.91;1017525;29;20024;-69
2022/08/06 01:40:03;;;;;;;69.40;33.92;;;;;;;16.89;100.00;96400.34;1021961;29;20035;-70
2022/08/06 01:40:34;;;;;;;63.83;30.60;;;;;;;16.73;100.00;96389.16;1022083;29;20106;-70
2022/08/06 01:41:07;;;;;;;68.28;31.98;;;;;;;16.78;100.00;96395.47;1015000;29;20115;-69
2022/08/06 01:41:43;;;;;;;68.68;32.58;;;;;;;16.70;100.00;96388.94;1019808;29;20111;-71
2022/08/06 01:42:13;;;;;;;54.83;28.85;;;;;;;16.76;100.00;96402.91;1022245;28;20019;-70
2022/08/06 01:42:44;;;;;;;75.95;32.78;;;;;;;16.76;100.00;96397.63;1020564;28;20020;-69
2022/08/06 01:43:16;;;;;;;66.70;31.20;;;;;;;16.68;100.00;96391.06;1022867;28;20043;-69
2022/08/06 01:43:46;;;;;;;49.58;27.35;;;;;;;16.62;100.00;96387.69;1018315;29;20051;-69
2022/08/06 01:44:17;;;;;;;67.15;32.13;;;;;;;16.76;100.00;96405.56;1020153;29;20078;-71
2022/08/06 01:44:49;;;;;;;71.68;32.75;;;;;;;16.74;100.00;96403.19;1025875;28;20669;-71
2022/08/06 01:45:20;;;;;;;63.53;32.13;;;;;;;16.72;100.00;96398.16;1017929;29;20714;-68
2022/08/06 01:45:50;;;;;;;80.78;34.38;;;;;;;16.66;100.00;96396.66;1021199;29;20031;-71
2022/08/06 01:46:20;;;;;;;69.38;33.13;;;;;;;16.67;100.00;96405.41;1020607;29;20110;-69
2022/08/06 01:46:53;;;;;;;60.78;31.40;;;;;;;16.68;100.00;96406.97;1022230;28;20413;-69
2022/08/06 01:47:24;;;;;;;59.30;29.50;;;;;;;16.67;100.00;96400.88;1022318;28;20043;-69
2022/08/06 01:48:01;;;;;;;58.83;29.50;;;;;;;16.65;100.00;96403.03;1019612;29;20457;-70
2022/08/06 01:48:31;;;;;;;65.07;30.52;;;;;;;16.60;100.00;96395.16;1022128;29;20031;-71
2022/08/06 01:49:08;;;;;;;52.47;27.73;;;;;;;16.60;100.00;96403.09;1026200;28;20709;-69
2022/08/06 01:49:40;;;;;;;55.33;27.58;;;;;;;16.57;100.00;96392.28;1021377;28;20026;-70
2022/08/06 01:50:11;;;;;;;61.03;29.10;;;;;;;16.59;100.00;96398.06;1030238;28;20590;-70
2022/08/06 01:50:45;;;;;;;41.90;22.77;;;;;;;16.52;100.00;96398.41;1030058;28;20026;-70
2022/08/06 01:51:15;;;;;;;42.03;23.38;;;;;;;16.44;100.00;96396.41;1022861;28;20556;-70
2022/08/06 01:51:46;;;;;;;37.83;22.38;;;;;;;16.45;100.00;96395.34;1029810;28;20037;-70
2022/08/06 01:52:17;;;;;;;47.63;25.02;;;;;;;16.42;100.00;96401.19;1030124;28;20843;-70
2022/08/06 01:52:47;;;;;;;48.30;24.88;;;;;;;16.43;100.00;96405.41;1020059;29;20027;-71
2022/08/06 01:53:22;;;;;;;48.78;24.42;;;;;;;16.41;100.00;96394.31;1021579;29;20121;-70
2022/08/06 01:53:53;;;;;;;41.75;24.15;;;;;;;16.40;100.00;96406.00;1026088;28;20031;-70
2022/08/06 01:54:23;;;;;;;48.15;24.52;;;;;;;16.39;100.00;96399.09;1023395;28;20457;-69
2022/08/06 01:54:54;;;;;;;43.55;23.05;;;;;;;16.40;100.00;96398.06;1020611;29;20011;-71
2022/08/06 01:55:25;;;;;;;58.65;28.33;;;;;;;16.40;100.00;96390.13;1022023;29;20020;-69
2022/08/06 01:55:57;;;;;;;47.60;25.83;;;;;;;16.40;100.00;96392.75;1022017;29;20027;-70
2022/08/06 01:56:27;;;;;;;42.17;23.65;;;;;;;16.40;100.00;96388.25;1019738;29;20023;-70
2022/08/06 01:56:58;;;;;;;42.78;23.73;;;;;;;16.39;100.00;96391.16;1014294;29;20088;-70
2022/08/06 01:57:28;;;;;;;40.30;23.42;;;;;;;16.39;100.00;96383.22;1026028;28;20092;-70
2022/08/06 01:57:59;;;;;;;34.45;21.83;;;;;;;16.35;100.00;96385.66;1023592;28;20038;-70
2022/08/06 01:58:33;;;;;;;41.35;23.60;;;;;;;16.37;100.00;96380.88;1030220;28;20504;-70
2022/08/06 01:59:04;;;;;;;47.50;24.85;;;;;;;16.36;100.00;96383.78;1022755;28;20781;-72
2022/08/06 01:59:36;;;;;;;40.70;22.58;;;;;;;16.35;100.00;96379.56;1028022;28;20014;-70
2022/08/06 02:00:07;;;;;;;45.88;24.60;;;;;;;16.35;100.00;96376.91;1025718;28;20037;-71
2022/08/06 02:00:42;;;;;;;43.80;24.55;;;;;;;16.28;100.00;96374.59;1026605;28;20029;-70
2022/08/06 02:01:13;;;;;;;47.25;24.55;;;;;;;16.36;100.00;96381.13;1020394;29;20008;-70
2022/08/06 02:01:43;;;;;;;43.15;23.58;;;;;;;16.33;100.00;96376.41;1021551;28;20015;-70
2022/08/06 02:02:17;;;;;;;44.38;25.10;;;;;;;16.34;100.00;96378.00;1026045;28;20015;-69
2022/08/06 02:02:48;;;;;;;41.55;23.88;;;;;;;16.36;100.00;96376.63;1022661;28;20015;-70
2022/08/06 02:03:23;;;;;;;46.60;23.85;;;;;;;16.33;100.00;96376.41;1023940;28;20020;-70
2022/08/06 02:03:54;;;;;;;41.20;23.92;;;;;;;16.36;100.00;96378.47;1025914;28;20113;-71
2022/08/06 02:04:26;;;;;;;45.30;23.15;;;;;;;16.34;100.00;96367.41;1022043;29;20626;-71
2022/08/06 02:04:58;;;;;;;45.47;25.65;;;;;;;16.35;100.00;96376.91;1027609;28;20010;-71
2022/08/06 02:05:28;;;;;;;38.35;22.73;;;;;;;16.32;100.00;96375.63;1016581;29;20103;-70
2022/08/06 02:05:59;;;;;;;33.75;20.48;;;;;;;16.34;100.00;96370.03;1017976;29;20529;-70
2022/08/06 02:06:38;;;;;;;45.40;24.08;;;;;;;16.34;100.00;96375.34;1019558;29;20027;-71
2022/08/06 02:07:09;;;;;;;53.15;25.98;;;;;;;16.32;100.00;96372.19;1027349;28;20014;-70
2022/08/06 02:07:41;;;;;;;47.60;23.67;;;;;;;16.29;100.00;96373.53;1029963;28;20014;-70
2022/08/06 02:08:13;;;;;;;46.00;24.52;;;;;;;16.36;100.00;96378.47;1017911;29;20027;-71
2022/08/06 02:08:43;;;;;;;44.08;23.00;;;;;;;16.34;100.00;96378.00;1022132;29;20045;-70
2022/08/06 02:09:16;;;;;;;48.70;23.95;;;;;;;16.29;100.00;96373.53;1022520;28;20024;-70
2022/08/06 02:09:47;;;;;;;39.05;21.75;;;;;;;16.29;100.00;96378.81;1022541;28;20026;-70
2022/08/06 02:10:18;;;;;;;38.50;23.10;;;;;;;16.29;100.00;96370.09;1014045;29;20020;-70
2022/08/06 02:10:49;;;;;;;39.35;23.27;;;;;;;16.27;100.00;96365.88;1029886;28;20010;-70
2022/08/06 02:11:19;;;;;;;41.40;22.95;;;;;;;16.28;100.00;96369.31;1025449;28;20102;-69
2022/08/06 02:12:06;;;;;;;41.38;22.65;;;;;;;16.22;100.00;96362.50;1029874;28;20027;-70
2022/08/06 02:12:36;;;;;;;39.55;22.17;;;;;;;16.27;100.00;96373.81;1022020;29;20416;-70
2022/08/06 02:13:07;;;;;;;45.88;24.20;;;;;;;16.21;100.00;96372.31;1024184;28;20019;-70
2022/08/06 02:13:38;;;;;;;40.95;22.70;;;;;;;16.21;100.00;96372.31;1023181;28;20033;-71
2022/08/06 02:14:08;;;;;;;42.20;22.45;;;;;;;16.22;100.00;96373.88;1018076;29;20024;-70
2022/08/06 02:14:46;;;;;;;40.85;22.23;;;;;;;16.24;100.00;96382.34;1014039;29;20087;-70
2022/08/06 02:15:22;;;;;;;40.67;23.48;;;;;;;16.25;100.00;96383.91;1018100;29;20032;-70
2022/08/06 02:15:52;;;;;;;38.97;21.83;;;;;;;16.27;100.00;96378.34;1026101;28;20019;-71
2022/08/06 02:16:23;;;;;;;44.08;23.02;;;;;;;16.25;100.00;96375.16;1017911;29;20442;-70
2022/08/06 02:16:53;;;;;;;45.60;24.00;;;;;;;16.29;100.00;96372.75;1014132;29;20854;-70
2022/08/06 02:17:25;;;;;;;40.60;22.35;;;;;;;16.34;100.00;96383.28;1023992;29;20019;-71
2022/08/06 02:17:58;;;;;;;39.15;21.88;;;;;;;16.32;100.00;96378.25;1028629;28;20019;-71
2022/08/06 02:18:29;;;;;;;38.65;23.63;;;;;;;16.35;100.00;96374.25;1025636;28;20042;-71
2022/08/06 02:19:00;;;;;;;44.40;23.42;;;;;;;16.34;100.00;96370.84;1021757;29;20024;-71
2022/08/06 02:19:30;;;;;;;46.92;23.50;;;;;;;16.34;100.00;96370.84;1020753;29;20028;-71
2022/08/06 02:20:01;;;;;;;41.78;23.23;;;;;;;16.34;100.00;96375.34;1020764;29;20058;-70
2022/08/06 02:20:42;;;;;;;42.38;23.95;;;;;;;16.30;100.00;96377.78;1024031;28;20023;-71
2022/08/06 02:21:15;;;;;;;49.33;25.67;;;;;;;16.33;100.00;96381.69;1025379;28;20023;-71
2022/08/06 02:21:45;;;;;;;40.22;23.42;;;;;;;16.26;100.00;96368.78;1025034;28;20027;-70
2022/08/06 02:22:17;;;;;;;50.05;27.25;;;;;;;16.35;100.00;96382.22;1018025;29;20028;-71
2022/08/06 02:22:47;;;;;;;46.33;24.75;;;;;;;16.34;100.00;96380.63;1022078;29;20493;-71
2022/08/06 02:23:20;;;;;;;54.35;27.13;;;;;;;16.31;100.00;96382.00;1022151;29;20027;-70
2022/08/06 02:23:50;;;;;;;41.60;24.38;;;;;;;16.33;100.00;96382.50;1018527;29;20742;-70
2022/08/06 02:24:22;;;;;;;41.53;24.27;;;;;;;16.30;100.00;96375.13;1021963;29;20031;-71
2022/08/06 02:24:52;;;;;;;47.50;26.00;;;;;;;16.35;100.00;96387.50;1025959;28;20562;-70
2022/08/06 02:25:23;;;;;;;41.35;25.38;;;;;;;16.36;100.00;96383.78;1022048;28;20060;-70
2022/08/06 02:25:53;;;;;;;44.15;23.98;;;;;;;16.37;100.00;96382.72;1022294;29;20681;-71
2022/08/06 02:26:24;;;;;;;49.08;26.85;;;;;;;16.36;100.00;96368.66;1022077;28;20046;-70
2022/08/06 02:26:58;;;;;;;59.85;28.58;;;;;;;16.42;100.00;96385.28;1021042;29;20465;-70
2022/08/06 02:27:29;;;;;;;51.35;26.00;;;;;;;16.40;100.00;96375.00;1021940;28;20028;-71
2022/08/06 02:27:59;;;;;;;52.92;26.15;;;;;;;16.33;100.00;96369.25;1025864;28;20391;-71
2022/08/06 02:28:30;;;;;;;41.92;24.13;;;;;;;16.35;100.00;96367.09;1026417;28;20484;-70